createdAt,value
2023-04-29T00:02:11.487Z,9.40
2023-04-29T00:04:40.858Z,9.40
2023-04-29T00:07:09.066Z,9.40
2023-04-29T00:09:36.306Z,9.40
2023-04-29T00:12:03.230Z,9.40
2023-04-29T00:14:29.996Z,9.40
2023-04-29T00:16:57.282Z,9.30
2023-04-29T00:19:26.467Z,9.40
2023-04-29T00:21:55.492Z,9.40
2023-04-29T00:24:22.264Z,9.40
2023-04-29T00:26:49.053Z,9.40
2023-04-29T00:29:18.978Z,9.40
2023-04-29T00:31:46.140Z,9.30
2023-04-29T00:34:12.939Z,9.30
2023-04-29T00:36:41.934Z,9.30
2023-04-29T00:39:08.667Z,9.30
2023-04-29T00:41:37.682Z,9.30
2023-04-29T00:44:04.602Z,9.20
2023-04-29T00:46:31.408Z,9.20
2023-04-29T00:48:58.215Z,9.10
2023-04-29T00:51:28.210Z,9.10
2023-04-29T00:53:58.537Z,9.00
2023-04-29T00:56:25.588Z,9.10
2023-04-29T00:58:54.605Z,9.10
2023-04-29T01:01:22.060Z,9.10
2023-04-29T01:03:51.222Z,9.00
2023-04-29T01:06:43.919Z,8.90
2023-04-29T01:09:45.492Z,9.00
2023-04-29T01:12:36.290Z,9.00
2023-04-29T01:15:20.425Z,8.90
2023-04-29T01:18:04.739Z,8.90
2023-04-29T01:20:31.573Z,8.90
2023-04-29T01:23:02.999Z,8.90
2023-04-29T01:25:29.817Z,8.80
2023-04-29T01:28:18.457Z,8.80
2023-04-29T01:31:01.079Z,8.90
2023-04-29T01:33:49.341Z,8.90
2023-04-29T01:36:48.321Z,8.90
2023-04-29T01:39:37.982Z,8.90
2023-04-29T01:42:17.690Z,8.90
2023-04-29T01:44:47.663Z,8.90
2023-04-29T01:47:15.049Z,8.90
2023-04-29T01:49:41.825Z,8.80
2023-04-29T01:52:13.455Z,8.80
2023-04-29T01:54:40.286Z,8.80
2023-04-29T01:57:07.057Z,8.80
2023-04-29T01:59:36.532Z,8.80
2023-04-29T02:02:03.292Z,8.80
2023-04-29T02:04:33.747Z,8.80
2023-04-29T02:07:00.593Z,8.80
2023-04-29T02:09:27.471Z,8.80
2023-04-29T02:11:56.413Z,8.80
2023-04-29T02:14:23.182Z,8.90
2023-04-29T02:16:50.281Z,8.90
2023-04-29T02:19:21.782Z,8.90
2023-04-29T02:21:48.541Z,8.90
2023-04-29T02:24:15.681Z,8.90
2023-04-29T02:26:44.557Z,8.90
2023-04-29T02:29:11.424Z,8.90
2023-04-29T02:31:38.318Z,8.80
2023-04-29T02:34:05.128Z,8.80
2023-04-29T02:36:31.956Z,8.80
2023-04-29T02:39:00.216Z,8.80
2023-04-29T02:41:27.038Z,8.80
2023-04-29T02:43:53.777Z,8.80
2023-04-29T02:46:20.673Z,8.80
2023-04-29T02:48:47.538Z,8.80
2023-04-29T02:51:17.270Z,8.80
2023-04-29T02:53:44.227Z,8.80
2023-04-29T02:56:11.643Z,8.70
2023-04-29T02:58:38.440Z,8.70
2023-04-29T03:01:07.424Z,8.70
2023-04-29T03:03:34.440Z,8.70
2023-04-29T03:06:01.260Z,8.70
2023-04-29T03:08:28.198Z,8.70
2023-04-29T03:10:57.202Z,8.70
2023-04-29T03:13:23.967Z,8.70
2023-04-29T03:15:50.733Z,8.70
2023-04-29T03:18:20.036Z,8.70
2023-04-29T03:20:46.816Z,8.70
2023-04-29T03:23:13.555Z,8.70
2023-04-29T03:25:42.614Z,8.60
2023-04-29T03:28:09.387Z,8.60
2023-04-29T03:30:36.750Z,8.60
2023-04-29T03:33:05.687Z,8.60
2023-04-29T03:35:32.609Z,8.60
2023-04-29T03:37:59.449Z,8.60
2023-04-29T03:40:30.697Z,8.70
2023-04-29T03:42:57.470Z,8.70
2023-04-29T03:45:26.609Z,8.70
2023-04-29T03:47:55.915Z,8.70
2023-04-29T03:50:23.477Z,8.80
2023-04-29T03:52:50.331Z,8.80
2023-04-29T03:55:17.245Z,8.70
2023-04-29T03:57:43.994Z,8.70
2023-04-29T04:00:11.429Z,8.80
2023-04-29T04:02:42.978Z,8.70
2023-04-29T04:05:11.005Z,8.70
2023-04-29T04:07:40.350Z,8.70
2023-04-29T04:10:07.502Z,8.70
2023-04-29T04:12:34.249Z,8.70
2023-04-29T04:15:01.072Z,8.70
2023-04-29T04:17:27.813Z,8.60
2023-04-29T04:19:54.837Z,8.60
2023-04-29T04:22:21.904Z,8.60
2023-04-29T04:24:48.892Z,8.50
2023-04-29T04:27:15.799Z,8.50
2023-04-29T04:29:42.814Z,8.50
2023-04-29T04:32:12.213Z,8.50
2023-04-29T04:34:42.058Z,8.50
2023-04-29T04:37:08.825Z,8.50
2023-04-29T04:39:39.989Z,8.60
2023-04-29T04:42:06.918Z,8.60
2023-04-29T04:44:35.876Z,8.60
2023-04-29T04:47:05.482Z,8.70
2023-04-29T04:49:32.246Z,8.70
2023-04-29T04:52:01.247Z,8.80
2023-04-29T04:54:28.073Z,8.80
2023-04-29T04:56:57.291Z,8.80
2023-04-29T04:59:24.048Z,8.80
2023-04-29T05:01:53.364Z,8.90
2023-04-29T05:04:20.417Z,8.90
2023-04-29T05:06:47.548Z,9.00
2023-04-29T05:09:14.336Z,9.00
2023-04-29T05:11:41.983Z,9.10
2023-04-29T05:14:08.822Z,9.10
2023-04-29T05:16:40.372Z,9.20
2023-04-29T05:19:09.706Z,9.20
2023-04-29T05:21:36.483Z,9.30
2023-04-29T05:24:06.221Z,9.30
2023-04-29T05:26:33.046Z,9.40
2023-04-29T05:29:02.251Z,9.50
2023-04-29T05:31:29.162Z,9.60
2023-04-29T05:33:56.040Z,9.70
2023-04-29T05:36:22.835Z,9.90
2023-04-29T05:38:49.598Z,10.00
2023-04-29T05:41:18.867Z,10.00
2023-04-29T05:43:48.289Z,10.10
2023-04-29T05:46:15.085Z,10.20
2023-04-29T05:48:42.124Z,10.30
2023-04-29T05:51:08.962Z,10.60
2023-04-29T05:53:36.208Z,10.60
2023-04-29T05:56:06.570Z,10.70
2023-04-29T05:58:33.330Z,10.90
2023-04-29T06:01:02.920Z,11.10
2023-04-29T06:03:30.101Z,11.50
2023-04-29T06:05:57.130Z,11.80
2023-04-29T06:08:26.794Z,12.10
2023-04-29T06:10:53.572Z,12.60
2023-04-29T06:13:20.469Z,12.80
2023-04-29T06:15:47.286Z,13.10
2023-04-29T06:18:14.261Z,13.30
2023-04-29T06:20:43.429Z,13.60
2023-04-29T06:23:10.439Z,13.70
2023-04-29T06:25:37.244Z,13.50
2023-04-29T06:28:04.522Z,13.30
2023-04-29T06:30:31.371Z,13.00
2023-04-29T06:32:58.138Z,12.80
2023-04-29T06:35:25.002Z,12.70
2023-04-29T06:37:52.821Z,12.60
2023-04-29T06:40:19.623Z,12.50
2023-04-29T06:42:48.769Z,12.50
2023-04-29T06:45:15.527Z,12.50
2023-04-29T06:47:42.353Z,12.50
2023-04-29T06:50:09.819Z,12.50
2023-04-29T06:52:36.603Z,12.50
2023-04-29T06:55:05.576Z,12.60
2023-04-29T06:57:32.731Z,12.60
2023-04-29T07:00:01.877Z,12.70
2023-04-29T07:02:28.736Z,12.70
2023-04-29T07:04:55.691Z,12.80
2023-04-29T07:07:22.497Z,12.90
2023-04-29T07:09:52.163Z,13.00
2023-04-29T07:12:19.163Z,13.10
2023-04-29T07:14:48.304Z,13.20
2023-04-29T07:17:15.095Z,13.20
2023-04-29T07:19:41.935Z,13.30
2023-04-29T07:22:11.197Z,13.30
2023-04-29T07:24:38.086Z,13.40
2023-04-29T07:27:04.823Z,13.40
2023-04-29T07:29:33.967Z,13.50
2023-04-29T07:32:03.204Z,13.50
2023-04-29T07:34:29.979Z,13.50
2023-04-29T07:37:01.451Z,13.60
2023-04-29T07:39:29.310Z,13.60
2023-04-29T07:41:59.985Z,13.70
2023-04-29T07:44:26.835Z,13.70
2023-04-29T07:46:53.604Z,13.80
2023-04-29T07:49:20.327Z,13.80
2023-04-29T07:51:47.104Z,13.90
2023-04-29T07:54:13.864Z,13.90
2023-04-29T07:56:42.986Z,14.00
2023-04-29T07:59:09.765Z,14.00
2023-04-29T08:01:36.554Z,14.00
2023-04-29T08:04:05.747Z,14.10
2023-04-29T08:06:35.793Z,14.10
2023-04-29T08:09:03.293Z,14.20
2023-04-29T08:11:34.520Z,14.20
2023-04-29T08:14:01.469Z,14.20
2023-04-29T08:16:28.446Z,14.30
2023-04-29T08:18:56.287Z,14.30
2023-04-29T08:21:25.448Z,14.40
2023-04-29T08:23:52.247Z,14.40
2023-04-29T08:26:22.545Z,14.50
2023-04-29T08:28:50.447Z,14.50
2023-04-29T08:31:22.559Z,14.60
2023-04-29T08:33:49.358Z,14.60
2023-04-29T08:36:21.410Z,14.70
2023-04-29T08:38:52.732Z,14.80
2023-04-29T08:41:19.567Z,14.80
2023-04-29T08:43:46.423Z,14.90
2023-04-29T08:46:15.543Z,15.00
2023-04-29T08:48:45.534Z,15.10
2023-04-29T08:51:13.854Z,15.10
2023-04-29T08:53:40.747Z,15.10
2023-04-29T08:56:14.850Z,15.20
2023-04-29T08:58:41.702Z,15.30
2023-04-29T09:01:11.564Z,15.40
2023-04-29T09:04:13.274Z,15.40
2023-04-29T09:06:40.111Z,15.50
2023-04-29T09:09:06.835Z,15.60
2023-04-29T09:11:33.656Z,15.70
2023-04-29T09:14:01.474Z,15.80
2023-04-29T09:16:33.630Z,15.90
2023-04-29T09:19:02.882Z,16.00
2023-04-29T09:21:35.510Z,16.10
2023-04-29T09:24:03.383Z,16.10
2023-04-29T09:26:44.288Z,16.20
2023-04-29T09:29:16.407Z,16.30
2023-04-29T09:31:43.479Z,16.40
2023-04-29T09:34:11.889Z,16.50
2023-04-29T09:36:46.361Z,16.50
2023-04-29T09:39:16.298Z,16.50
2023-04-29T09:41:55.462Z,16.50
2023-04-29T09:44:27.248Z,16.50
2023-04-29T09:46:58.504Z,16.50
2023-04-29T09:49:26.109Z,16.50
2023-04-29T09:52:00.544Z,16.40
2023-04-29T09:54:28.663Z,16.50
2023-04-29T09:57:00.697Z,16.60
2023-04-29T09:59:27.536Z,16.70
2023-04-29T10:01:55.900Z,16.70
2023-04-29T10:04:24.596Z,16.80
2023-04-29T10:06:52.522Z,16.80
2023-04-29T10:09:24.264Z,16.90
2023-04-29T10:11:54.016Z,16.90
2023-04-29T10:14:21.973Z,16.90
2023-04-29T10:16:54.772Z,16.80
2023-04-29T10:19:31.372Z,16.80
2023-04-29T10:21:59.026Z,16.70
2023-04-29T10:24:25.832Z,16.70
2023-04-29T10:26:53.301Z,16.80
2023-04-29T10:29:20.111Z,16.80
2023-04-29T10:31:47.136Z,16.70
2023-04-29T10:34:14.113Z,16.80
2023-04-29T10:36:41.305Z,16.90
2023-04-29T10:39:12.155Z,17.00
2023-04-29T10:41:51.324Z,17.20
2023-04-29T10:44:20.860Z,17.50
2023-04-29T10:46:47.674Z,17.50
2023-04-29T10:49:14.545Z,17.60
2023-04-29T10:51:44.676Z,17.80
2023-04-29T10:54:15.556Z,18.00
2023-04-29T10:56:44.185Z,18.30
2023-04-29T10:59:33.994Z,18.60
2023-04-29T11:02:02.913Z,19.10
2023-04-29T11:04:29.771Z,19.60
2023-04-29T11:06:59.050Z,20.10
2023-04-29T11:09:34.265Z,20.70
2023-04-29T11:12:05.969Z,21.40
2023-04-29T11:14:49.920Z,22.10
2023-04-29T11:17:17.956Z,22.90
2023-04-29T11:19:46.772Z,23.60
2023-04-29T11:22:21.159Z,24.50
2023-04-29T11:24:52.876Z,24.70
2023-04-29T11:27:20.738Z,24.90
2023-04-29T11:29:47.714Z,25.50
2023-04-29T11:32:16.846Z,26.20
2023-04-29T11:34:43.891Z,27.20
2023-04-29T11:37:10.697Z,28.40
2023-04-29T11:39:37.489Z,29.60
2023-04-29T11:42:07.376Z,30.30
2023-04-29T11:44:38.049Z,29.10
2023-04-29T11:47:05.920Z,28.20
2023-04-29T11:49:33.496Z,27.80
2023-04-29T11:52:00.266Z,28.20
2023-04-29T11:54:29.720Z,28.20
2023-04-29T11:56:57.107Z,28.20
2023-04-29T11:59:24.132Z,27.40
2023-04-29T12:01:51.274Z,26.60
2023-04-29T12:04:20.782Z,25.40
2023-04-29T12:06:51.461Z,24.10
2023-04-29T12:09:19.415Z,23.10
2023-04-29T12:11:50.314Z,22.50
2023-04-29T12:14:20.423Z,21.90
2023-04-29T12:16:49.715Z,21.50
2023-04-29T12:19:16.498Z,21.30
2023-04-29T12:21:52.437Z,21.10
2023-04-29T12:24:21.399Z,20.90
2023-04-29T12:26:50.786Z,20.80
2023-04-29T12:29:17.539Z,20.70
2023-04-29T12:31:47.495Z,20.60
2023-04-29T12:34:14.260Z,20.50
2023-04-29T12:36:46.366Z,20.50
2023-04-29T12:39:16.468Z,20.40
2023-04-29T12:41:43.392Z,20.30
2023-04-29T12:44:12.899Z,20.30
2023-04-29T12:46:41.310Z,20.30
2023-04-29T12:49:08.323Z,20.30
2023-04-29T12:51:35.519Z,20.40
2023-04-29T12:54:03.670Z,20.40
2023-04-29T12:56:33.412Z,20.30
2023-04-29T12:59:12.937Z,20.20
2023-04-29T13:01:42.203Z,20.10
2023-04-29T13:04:12.146Z,20.10
2023-04-29T13:06:39.621Z,20.00
2023-04-29T13:09:17.057Z,19.90
2023-04-29T13:11:45.548Z,19.80
2023-04-29T13:14:12.387Z,19.80
2023-04-29T13:16:39.202Z,19.70
2023-04-29T13:19:24.621Z,19.70
2023-04-29T13:21:57.342Z,19.80
2023-04-29T13:24:26.323Z,19.80
2023-04-29T13:26:54.290Z,19.80
2023-04-29T13:29:21.147Z,19.70
2023-04-29T13:31:51.097Z,19.50
2023-04-29T13:34:21.348Z,19.40
2023-04-29T13:36:48.247Z,19.40
2023-04-29T13:39:15.303Z,19.30
2023-04-29T13:41:45.485Z,19.30
2023-04-29T13:44:23.831Z,19.30
2023-04-29T13:46:55.842Z,19.30
2023-04-29T13:49:54.748Z,19.30
2023-04-29T13:54:58.784Z,19.50
2023-04-29T14:00:01.557Z,19.70
2023-04-29T14:02:36.912Z,19.70
2023-04-29T14:05:04.390Z,19.70
2023-04-29T14:07:33.646Z,19.60
2023-04-29T14:10:02.545Z,19.50
2023-04-29T14:12:29.280Z,19.50
2023-04-29T14:14:56.921Z,19.50
2023-04-29T14:17:25.223Z,19.50
2023-04-29T14:19:52.204Z,19.50
2023-04-29T14:22:19.119Z,19.40
2023-04-29T14:24:48.339Z,19.40
2023-04-29T14:27:15.376Z,19.50
2023-04-29T14:29:42.104Z,19.50
2023-04-29T14:32:08.895Z,19.60
2023-04-29T14:34:35.955Z,19.60
2023-04-29T14:37:03.163Z,19.60
2023-04-29T14:39:29.897Z,19.60
2023-04-29T14:41:59.144Z,19.60
2023-04-29T14:44:28.117Z,19.50
2023-04-29T14:46:57.253Z,19.60
2023-04-29T14:49:26.251Z,19.50
2023-04-29T14:51:53.029Z,19.60
2023-04-29T14:54:21.967Z,19.60
2023-04-29T14:56:50.946Z,19.50
2023-04-29T14:59:17.752Z,19.30
2023-04-29T15:01:44.598Z,19.20
2023-04-29T15:04:12.862Z,19.10
2023-04-29T15:06:40.768Z,19.00
2023-04-29T15:09:07.987Z,19.00
2023-04-29T15:11:34.801Z,19.00
2023-04-29T15:14:01.596Z,19.00
2023-04-29T15:16:31.729Z,18.90
2023-04-29T15:18:58.889Z,18.90
2023-04-29T15:21:26.898Z,18.90
2023-04-29T15:23:53.826Z,19.00
2023-04-29T15:26:21.705Z,18.90
2023-04-29T15:28:48.466Z,18.90
2023-04-29T15:31:17.819Z,18.90
2023-04-29T15:33:44.701Z,18.90
2023-04-29T15:36:11.575Z,18.90
2023-04-29T15:38:38.362Z,18.80
2023-04-29T15:41:07.333Z,18.80
2023-04-29T15:43:34.443Z,18.80
2023-04-29T15:46:01.282Z,18.80
2023-04-29T15:48:28.205Z,18.80
2023-04-29T15:50:55.263Z,18.70
2023-04-29T15:53:23.288Z,18.70
2023-04-29T15:55:50.091Z,18.60
2023-04-29T15:58:19.071Z,18.60
2023-04-29T16:00:48.669Z,18.60
2023-04-29T16:03:15.530Z,18.60
2023-04-29T16:05:45.043Z,18.60
2023-04-29T16:08:11.905Z,18.60
2023-04-29T16:10:41.094Z,18.50
2023-04-29T16:13:08.132Z,18.40
2023-04-29T16:15:34.851Z,18.30
2023-04-29T16:18:03.916Z,18.30
2023-04-29T16:20:30.657Z,18.30
2023-04-29T16:22:59.533Z,18.30
2023-04-29T16:25:28.393Z,18.30
2023-04-29T16:27:55.264Z,18.30
2023-04-29T16:30:22.215Z,18.30
2023-04-29T16:32:49.049Z,18.30
2023-04-29T16:35:16.189Z,18.30
2023-04-29T16:37:45.103Z,18.30
2023-04-29T16:40:12.388Z,18.30
2023-04-29T16:42:41.325Z,18.30
2023-04-29T16:45:08.997Z,18.30
2023-04-29T16:47:40.803Z,18.30
2023-04-29T16:50:08.864Z,18.20
2023-04-29T16:52:35.607Z,18.20
2023-04-29T16:55:03.740Z,18.20
2023-04-29T16:57:30.810Z,18.10
2023-04-29T16:59:57.720Z,18.00
2023-04-29T17:02:24.595Z,17.90
2023-04-29T17:04:53.949Z,17.90
2023-04-29T17:07:22.988Z,17.90
2023-04-29T17:09:49.901Z,17.90
2023-04-29T17:12:16.790Z,17.90
2023-04-29T17:14:44.370Z,17.90
2023-04-29T17:17:11.216Z,17.90
2023-04-29T17:19:37.939Z,17.80
2023-04-29T17:22:05.066Z,17.80
2023-04-29T17:24:32.679Z,17.80
2023-04-29T17:27:05.510Z,17.80
2023-04-29T17:29:32.298Z,17.70
2023-04-29T17:32:03.449Z,17.70
2023-04-29T17:34:34.072Z,17.70
2023-04-29T17:37:03.764Z,17.60
2023-04-29T17:39:30.909Z,17.60
2023-04-29T17:41:59.879Z,17.40
2023-04-29T17:44:26.655Z,17.30
2023-04-29T17:46:55.842Z,17.20
2023-04-29T17:49:22.612Z,17.00
2023-04-29T17:51:49.397Z,16.80
2023-04-29T17:54:18.669Z,16.70
2023-04-29T17:56:47.589Z,16.70
2023-04-29T17:59:14.440Z,16.80
2023-04-29T18:01:41.691Z,16.80
2023-04-29T18:04:13.350Z,16.80
2023-04-29T18:06:40.303Z,16.70
2023-04-29T18:09:07.370Z,16.80
2023-04-29T18:11:34.140Z,16.80
2023-04-29T18:14:01.129Z,16.80
2023-04-29T18:16:28.043Z,16.80
2023-04-29T18:18:56.818Z,16.70
2023-04-29T18:21:24.732Z,16.70
2023-04-29T18:23:51.594Z,16.70
2023-04-29T18:26:20.992Z,16.70
2023-04-29T18:28:47.979Z,16.70
2023-04-29T18:31:20.755Z,16.70
2023-04-29T18:33:49.878Z,16.70
2023-04-29T18:36:21.403Z,16.60
2023-04-29T18:38:48.246Z,16.60
2023-04-29T18:41:15.065Z,16.60
2023-04-29T18:43:46.527Z,16.60
2023-04-29T18:46:15.478Z,16.60
2023-04-29T18:48:42.341Z,16.50
2023-04-29T18:51:09.134Z,16.50
2023-04-29T18:53:36.008Z,16.50
2023-04-29T18:56:05.328Z,16.40
2023-04-29T18:58:32.181Z,16.40
2023-04-29T19:01:02.954Z,16.50
2023-04-29T19:03:32.257Z,16.50
2023-04-29T19:05:59.100Z,16.50
2023-04-29T19:08:26.295Z,16.50
2023-04-29T19:10:54.085Z,16.50
2023-04-29T19:13:21.241Z,16.50
2023-04-29T19:15:50.915Z,16.60
2023-04-29T19:18:20.087Z,16.60
2023-04-29T19:20:46.956Z,16.60
2023-04-29T19:23:16.015Z,16.50
2023-04-29T19:25:45.263Z,16.50
2023-04-29T19:28:12.136Z,16.50
2023-04-29T19:30:38.961Z,16.50
2023-04-29T19:33:08.524Z,16.50
2023-04-29T19:35:37.704Z,16.40
2023-04-29T19:38:04.465Z,16.40
2023-04-29T19:40:31.203Z,16.30
2023-04-29T19:42:57.945Z,16.30
2023-04-29T19:45:24.721Z,16.30
2023-04-29T19:47:51.498Z,16.30
2023-04-29T19:50:19.471Z,16.30
2023-04-29T19:52:46.708Z,16.30
2023-04-29T19:55:14.432Z,16.30
2023-04-29T19:57:41.291Z,16.30
2023-04-29T20:00:13.505Z,16.30
2023-04-29T20:02:43.567Z,16.30
2023-04-29T20:05:13.684Z,16.30
2023-04-29T20:07:41.328Z,16.30
2023-04-29T20:10:08.629Z,16.30
2023-04-29T20:12:35.871Z,16.20
2023-04-29T20:15:05.891Z,16.20
2023-04-29T20:17:34.893Z,16.20
2023-04-29T20:20:04.138Z,16.20
2023-04-29T20:22:30.984Z,16.20
2023-04-29T20:24:57.770Z,16.10
2023-04-29T20:27:26.738Z,16.10
2023-04-29T20:29:56.921Z,16.10
2023-04-29T20:32:24.023Z,16.10
2023-04-29T20:34:50.942Z,16.00
2023-04-29T20:37:19.506Z,16.00
2023-04-29T20:39:48.779Z,16.00
2023-04-29T20:42:15.591Z,16.00
2023-04-29T20:44:42.581Z,16.00
2023-04-29T20:47:12.557Z,16.00
2023-04-29T20:49:41.675Z,16.00
2023-04-29T20:52:08.414Z,15.90
2023-04-29T20:54:35.248Z,15.90
2023-04-29T20:57:05.392Z,15.90
2023-04-29T20:59:36.636Z,15.90
2023-04-29T21:02:05.604Z,15.80
2023-04-29T21:04:34.805Z,15.80
2023-04-29T21:07:10.297Z,15.80
2023-04-29T21:09:37.159Z,15.80
2023-04-29T21:12:05.458Z,15.70
2023-04-29T21:14:32.899Z,15.70
2023-04-29T21:17:02.106Z,15.70
2023-04-29T21:19:28.849Z,15.70
2023-04-29T21:21:55.596Z,15.70
2023-04-29T21:24:22.334Z,15.70
2023-04-29T21:26:50.506Z,15.70
2023-04-29T21:29:17.339Z,15.70
2023-04-29T21:31:44.269Z,15.60
2023-04-29T21:34:11.112Z,15.60
2023-04-29T21:36:37.871Z,15.70
2023-04-29T21:39:06.207Z,15.60
2023-04-29T21:41:37.395Z,15.60
2023-04-29T21:44:04.194Z,15.60
2023-04-29T21:46:33.171Z,15.60
2023-04-29T21:49:02.122Z,15.60
2023-04-29T21:51:29.262Z,15.60
2023-04-29T21:54:00.692Z,15.60
2023-04-29T21:56:29.595Z,15.50
2023-04-29T21:58:58.800Z,15.50
2023-04-29T22:01:26.949Z,15.50
2023-04-29T22:03:54.872Z,15.50
2023-04-29T22:06:21.755Z,15.50
2023-04-29T22:08:48.610Z,15.50
2023-04-29T22:11:15.678Z,15.40
2023-04-29T22:13:45.690Z,15.40
2023-04-29T22:16:14.908Z,15.40
2023-04-29T22:18:41.750Z,15.40
2023-04-29T22:21:13.318Z,15.40
2023-04-29T22:23:40.063Z,15.30
2023-04-29T22:26:06.929Z,15.30
2023-04-29T22:28:33.707Z,15.30
2023-04-29T22:31:00.533Z,15.30
2023-04-29T22:33:27.264Z,15.30
2023-04-29T22:35:54.034Z,15.30
2023-04-29T22:38:22.841Z,15.30
2023-04-29T22:40:52.889Z,15.30
2023-04-29T22:43:22.539Z,15.30
2023-04-29T22:45:56.093Z,15.30
2023-04-29T22:48:25.115Z,15.20
2023-04-29T22:50:59.420Z,15.20
2023-04-29T22:53:28.454Z,15.20
2023-04-29T22:55:56.315Z,15.20
2023-04-29T22:58:25.312Z,15.20
2023-04-29T23:00:56.764Z,14.80
2023-04-29T23:03:26.801Z,14.70
2023-04-29T23:06:00.520Z,14.50
2023-04-29T23:08:27.645Z,14.50
2023-04-29T23:10:54.637Z,14.50
2023-04-29T23:13:21.457Z,14.40
2023-04-29T23:15:50.813Z,14.40
2023-04-29T23:18:17.597Z,14.30
2023-04-29T23:20:49.610Z,14.20
2023-04-29T23:23:18.526Z,14.20
2023-04-29T23:25:48.066Z,14.30
2023-04-29T23:28:14.839Z,14.30
2023-04-29T23:30:44.588Z,14.30
2023-04-29T23:33:11.365Z,14.30
2023-04-29T23:35:38.096Z,14.20
2023-04-29T23:38:04.918Z,14.20
2023-04-29T23:40:31.943Z,14.20
2023-04-29T23:43:01.235Z,14.30
2023-04-29T23:45:27.957Z,14.30
2023-04-29T23:47:54.779Z,14.30
2023-04-29T23:50:21.619Z,14.40
2023-04-29T23:52:48.428Z,14.40
2023-04-29T23:55:15.168Z,14.40
2023-04-29T23:57:41.903Z,14.40
